Airways and Terminal Forecast

Significant Meteorological Information

WSPH31 RPLL 291735 
RPHI SIGMET E06 VALID 291738/292138 RPLL-
RPHI MANILA FIR EMBD TS OBS WI N0837 E12056 - N0840 E12348 - N0616 E12427 - N0529 E11916 - N0656 E11813 - N0837 E12056 TOP FL500 MOV WSW 15KT INTSF=


WSPH31 RPLL 291704 
RPHI SIGMET D05 VALID 291708/292108 RPLL-
RPHI MANILA FIR EMBD TS OBS WI N1027 E12014 - N1441 E11813 - N1548 E11935 - N1314 E12252 - N1042 E12337 - N1027 E12014 TOP FL520 MOV WSW 10KT INTSF=

Terminal Aerodrome Forecast

TAF RPLL

291700Z 2918/3024 11006KT 9999 FEW025 BKN100 TX31/3005Z TN26/2921Z TEMPO 2918/2924 -SHRA SCT023 BKN090 TEMPO 3006/3012 08010KT 8000 -TSRA FEW022CB SCT023 OVC090=

TAF RPVM

291700Z 2918/3024 03005KT 9999 FEW020 BKN300 TEMPO 2918/2924 09004KT FEW018CB BKN100 TEMPO 3000/3006 07005KT -SHRA FEW018CB BKN300=

TAF RPLC

291700Z 2918/3024 25006KT 8000 SCT020 BKN300 TX32/3006Z TN25/2921Z TEMPO 2918/2924 34005KT SCT020 BKN100=

TAF RPLB

291700Z 2918/3018 06005KT 9999 FEW020 BKN300 TX29/3006Z TN24/2921Z TEMPO 2918/2924 VRB02KT 9000 -TSRA FEW016CB SCT018 BKN080=

TAF RPLI

291700Z 2918/3018 34006KT 9999 FEW018 SCT290 TEMPO 2918/2924 11005KT FEW017CB FEW018 BKN100=

TAF RPVP

291700Z 2918/3018 09006KT 9999 FEW019 SCT080 BKN240 TEMPO 2918/2924 27004KT -SHRA SCT019 BKN080=

TAF RPVD

291700Z 2918/3018 32006KT 9999 FEW015 SCT070 TEMPO 2918/2924 34008KT -SHRA FEW014CB SCT015 OVC070=

TAF RPMR

291700Z 2918/3018 11006KT 9999 FEW018 SCT080 BKN250 TEMPO 2918/2924 08007KT FEW017CB FEW018 BKN080 =

TAF RPMD

291700Z 2918/3018 03005KT 9999 FEW016 SCT090 BKN290 TEMPO 2918/2924 36004KT FEW016 BKN090 BKN260=

TAF RPMZ

291700Z 2918/3018 10006KT 9999 FEW017 SCT090 BKN300 TEMPO 2918/2924 VRB02KT -SHRA FEW016CB SCT017 BKN090=

TAF RPVK

291700Z 2918/3018 09006KT 9999 SCT016 BKN070 BKN240 TEMPO 2918/2924 13009KT -TSRA FEW015CB BKN070 OVC240=

 

RPLL FORECAST TAKE-OFF CONDITION

TIME

(UTC)

WIND

(dddffKT)

TEMP

(°C)

QNH

(hPa)

TIME

(UTC)

WIND

(dddffKT)

TEMP

(°C)

QNH

(hPa)

1800

13006KT

26.5

1009.0

2100

VRB03KT

26.0

1009.0

1900

12004KT

26.5

1009.0

2200

VRB02KT

26.5

1010.0

2000

14005KT

26.0

1008.0

2300

VRB02KT

27.5

1010.0

               

`

ISSUED AT NAIA AMSS-WD/PAGASA-DOST FOR 1700UTC 29 SEPTEMBER 2022

PREPARED BY:   CRSED

CHECKED BY:      MPT